Flight Track Log - Related Links

Times and Time Zones

All times are in EST time to prevent confusion due to time zone crossing. See the JBU1189 flight status page for this flight to view local times or setup timezone preferences in your user account.

Time Position Orientation Groundspeed Altitude Reporting Facility
EST Latitude Longitude Course Direction KTS MPH feet Rate Location/Type
Thu 09:03:03 PM 42.3500 -71.0167 234° Southwest 131 151 1,000  Level KA90
Thu 09:05:26 PM 42.3242 -70.8633 103° East 285 328 8,200 3,015 Climbing Boston Center
Thu 09:06:26 PM 42.3172 -70.7542 95° East 305 351 11,200 2,683 Climbing Boston Center
Thu 09:07:00 PM 42.0445 -71.6050 235° Southwest  Level Estimated
Thu 09:07:29 PM 42.2372 -70.7325 169° South 325 374 13,700  Level Boston Center
Thu 09:08:00 PM 41.9804 -71.7240 234° Southwest  Level Estimated
Thu 09:08:31 PM 42.2022 -70.8503 248° West 321 369 17,500  Level Boston Center
Thu 09:09:30 PM 42.1892 -70.9569 261° West 322 371 20,100 2,521 Climbing Boston Center
Thu 09:10:30 PM 42.1719 -71.0775 259° West 326 375 22,500 2,468 Climbing Boston Center
Thu 09:11:34 PM 42.1539 -71.2169 260° West 342 394 25,200 2,177 Climbing Boston Center
Thu 09:12:34 PM 42.1356 -71.3494 259° West 355 409 27,000 1,850 Climbing Boston Center
Thu 09:13:34 PM 42.1158 -71.4856 259° West 366 421 28,900 2,016 Climbing Boston Center
Thu 09:14:36 PM 42.0975 -71.6208 260° West 367 422 31,100 1,525 Climbing Boston Center
Thu 09:15:36 PM 42.0789 -71.7569 260° West 367 422 32,000 446 Climbing Boston Center
Thu 09:16:37 PM 42.0467 -71.8967 253° West 386 444 32,000  Level Boston Center
Thu 09:17:37 PM 41.9911 -72.0214 239° Southwest 387 445 32,000  Level Boston Center
Thu 09:18:39 PM 41.9353 -72.1478 239° Southwest 389 448 32,000  Level Boston Center
Thu 09:19:40 PM 41.8792 -72.2725 239° Southwest 390 449 32,000  Level Boston Center
Thu 09:20:40 PM 41.8228 -72.3978 239° Southwest 390 449 32,000  Level Boston Center
Thu 09:21:42 PM 41.7667 -72.5225 239° Southwest 390 449 32,000  Level Boston Center
Thu 09:22:42 PM 41.7117 -72.6428 239° Southwest 386 444 32,000  Level Boston Center
Thu 09:23:42 PM 41.6569 -72.7611 238° Southwest 378 435 32,000  Level Boston Center
Thu 09:24:44 PM 41.6025 -72.8831 239° Southwest 380 437 32,000  Level Boston Center
Thu 09:25:45 PM 41.5472 -73.0022 238° Southwest 379 436 32,000  Level Boston Center
Thu 09:26:45 PM 41.4886 -73.1319 239° Southwest 381 438 32,000 -149 Level Boston Center
Thu 09:27:46 PM 41.4342 -73.2506 239° Southwest 380 437 31,700 -555 Descending Boston Center
Thu 09:28:44 PM 41.3792 -73.3678 238° Southwest 379 436 30,900 -738 Descending Boston Center
Thu 09:29:48 PM 41.3233 -73.4875 238° Southwest 380 437 30,200 -435 Descending Boston Center
Thu 09:30:48 PM 41.2550 -73.6267 237° Southwest 380 437 30,000 -86 Descending Boston Center
Thu 09:32:07 PM 41.1736 -73.7675 233° Southwest 387 445 30,000  Level New York Center
Thu 09:33:07 PM 41.1083 -73.8775 232° Southwest 387 445 30,000  Level New York Center
Thu 09:34:07 PM 41.0428 -73.9844 231° Southwest 382 440 30,000  Level New York Center
Thu 09:35:07 PM 40.9772 -74.0967 232° Southwest 387 445 30,000  Level New York Center
Thu 09:36:07 PM 40.9011 -74.2136 229° Southwest 387 445 30,000 -400 Level New York Center
Thu 09:37:07 PM 40.8375 -74.3231 232° Southwest 387 445 29,200 -1,000 Descending New York Center
Thu 09:38:07 PM 40.7736 -74.4292 232° Southwest 387 445 28,000 -600 Descending New York Center
Thu 09:39:07 PM 40.7081 -74.5325 230° Southwest 387 445 28,000  Level New York Center
Thu 09:40:07 PM 40.6464 -74.6358 232° Southwest 381 438 28,000  Level New York Center
Thu 09:41:07 PM 40.5822 -74.7414 231° Southwest 381 438 28,000  Level New York Center
Thu 09:42:07 PM 40.5144 -74.8411 228° Southwest 376 433 28,000  Level New York Center
Thu 09:43:07 PM 40.4442 -74.9408 227° Southwest 376 433 28,000  Level New York Center
Thu 09:44:07 PM 40.3761 -75.0375 227° Southwest 376 433 28,000  Level New York Center
Thu 09:45:07 PM 40.3061 -75.1311 226° Southwest 371 427 28,000 -100 Level New York Center
Thu 09:46:07 PM 40.2442 -75.2222 228° Southwest 371 427 27,800 -1,050 Descending New York Center
Thu 09:47:07 PM 40.1781 -75.3158 227° Southwest 371 427 25,900 -1,850 Descending New York Center
Thu 09:48:07 PM 40.1100 -75.4092 226° Southwest 371 427 24,100 -1,800 Descending New York Center
Thu 09:49:07 PM 40.0458 -75.4997 227° Southwest 360 414 22,300 -1,050 Descending New York Center
Thu 09:50:07 PM 39.9839 -75.5878 227° Southwest 350 403 22,000 -150 Descending New York Center
Thu 09:51:07 PM 39.9258 -75.6839 232° Southwest 345 397 22,000  Level New York Center
Thu 09:52:07 PM 39.8636 -75.7742 228° Southwest 340 391 22,000  Level New York Center
Thu 09:53:07 PM 39.8075 -75.8675 232° Southwest 340 391 22,000 -1,113 Level New York Center
Thu 09:55:21 PM 39.6667 -76.0833 230° Southwest 320 368 18,400 -1,564 Descending Potomac TRACON
Thu 09:56:15 PM 39.6167 -76.1500 226° Southwest 316 364 17,100 -1,579 Descending Potomac TRACON
Thu 09:57:15 PM 39.5667 -76.2333 232° Southwest 309 356 15,400 -1,722 Descending Potomac TRACON
Thu 09:58:03 PM 39.5167 -76.3167 232° Southwest 307 353 14,000 -1,650 Descending Potomac TRACON
Thu 09:59:15 PM 39.4500 -76.4000 224° Southwest 300 345 12,100 -1,136 Descending Potomac TRACON
Thu 10:00:15 PM 39.3833 -76.4667 218° Southwest 299 344 11,500 -750 Descending Potomac TRACON
Thu 10:01:15 PM 39.3167 -76.5333 218° Southwest 297 342 10,600 -750 Descending Potomac TRACON
Thu 10:02:15 PM 39.2500 -76.5833 210° Southwest 299 344 10,000 -300 Descending Potomac TRACON
Thu 10:03:15 PM 39.1833 -76.6500 218° Southwest 301 346 10,000  Level Potomac TRACON
Thu 10:04:15 PM 39.1500 -76.7333 243° Southwest 293 337 10,000 -100 Level Potomac TRACON
Thu 10:05:15 PM 39.1167 -76.8333 247° West 261 300 9,800 -1,100 Descending Potomac TRACON
Thu 10:06:15 PM 39.1000 -76.9167 256° West 240 276 7,800 -2,053 Descending Potomac TRACON
Thu 10:07:09 PM 39.0667 -76.9833 237° Southwest 240 276 5,900 -1,842 Descending Potomac TRACON
Thu 10:08:09 PM 39.0500 -77.0667 256° West 225 259 4,300 -1,438 Descending Potomac TRACON
Thu 10:09:10 PM 39.0167 -77.1167 229° Southwest 236 272 3,000 -793 Descending Potomac TRACON
Thu 10:10:10 PM 38.9667 -77.1333 195° South 195 224 2,700 -750 Descending Potomac TRACON
Thu 10:11:10 PM 38.9167 -77.1000 153° Southeast 169 194 1,500 -900 Descending Potomac TRACON
Thu 10:12:10 PM 38.9000 -77.0667 123° Southeast 121 139 900 -550 Descending Potomac TRACON
Thu 10:13:10 PM 38.8667 -77.0333 142° Southeast 118 136 400 -500 Descending Potomac TRACON
Thu 10:15:00 PM 38.8519 -77.0377 169° South  Level Estimated
Thu 10:22:00 PM 38.8500 -77.0333 343° North  Level FlightAware Approximate

Login

Don't have an account? Register now (free) for customized features, flight alerts, and more!